Time;durP1;ratioP1;P1;durP2;ratioP2;P2;SDS_P1;SDS_P2;PMS_P1;PMS_P2;Temp;Humidity;BMP_temperature;BMP_pressure;BME280_temperature;BME280_humidity;BME280_pressure;Samples;Min_cycle;Max_cycle;Signal;HPM_P1;HPM_P2
2023/01/27 00:02:19;;;;;;;;;;;;;;;;;;5110727;28;19915;-66
2023/01/27 00:04:45;;;;;;;;;;;;;;;;;;5110638;28;19916;-66
2023/01/27 00:07:11;;;;;;;;;;;;;;;;;;5111019;28;19992;-68
2023/01/27 00:09:37;;;;;;;;;;;;;;;;;;5110754;28;19970;-67
2023/01/27 00:14:47;;;;;;;;;;;;;;;;;;5110503;28;19919;-67
2023/01/27 00:17:13;;;;;;;;;;;;;;;;;;5109640;28;19907;-67
2023/01/27 00:19:43;;;;;;;;;;;;;;;;;;5110962;28;19915;-68
2023/01/27 00:24:53;;;;;;;;;;;;;;;;;;5110600;28;20275;-68
2023/01/27 00:27:19;;;;;;;;;;;;;;;;;;5110355;28;19908;-67
2023/01/27 00:29:45;;;;;;;;;;;;;;;;;;5109485;28;19951;-67
2023/01/27 00:34:56;;;;;;;;;;;;;;;;;;5110187;28;19968;-66
2023/01/27 00:37:22;;;;;;;;;;;;;;;;;;5110628;28;19912;-65
2023/01/27 00:39:48;;;;;;;;;;;;;;;;;;5110477;28;19911;-64
2023/01/27 00:42:14;;;;;;;;;;;;;;;;;;5110100;28;19997;-67
2023/01/27 00:45:47;;;;;;;;;;;;;;;;;;5110495;28;19984;-64
2023/01/27 00:47:25;;;;;;;;;;;;;;;;;;5109474;28;19907;-68
2023/01/27 00:49:51;;;;;;;;;;;;;;;;;;5109824;28;19915;-67
2023/01/27 00:52:17;;;;;;;;;;;;;;;;;;5110432;28;19931;-67
2023/01/27 00:54:43;;;;;;;;;;;;;;;;;;5109673;28;20634;-64
2023/01/27 00:57:09;;;;;;;;;;;;;;;;;;5109443;28;19968;-64
2023/01/27 00:59:35;;;;;;;;;;;;;;;;;;5110033;28;19907;-64
2023/01/27 01:02:01;;;;;;;;;;;;;;;;;;5109266;28;19912;-64
2023/01/27 01:04:27;;;;;;;;;;;;;;;;;;5109793;28;19955;-66
2023/01/27 01:06:53;;;;;;;;;;;;;;;;;;5109661;28;19908;-66
2023/01/27 01:09:19;;;;;;;;;;;;;;;;;;5109647;28;20365;-65
2023/01/27 01:11:44;;;;;;;;;;;;;;;;;;5091222;28;19916;-64
2023/01/27 01:14:10;;;;;;;;;;;;;;;;;;5091178;28;20391;-68
2023/01/27 01:16:36;;;;;;;;;;;;;;;;;;5109167;28;19908;-67
2023/01/27 01:19:02;;;;;;;;;;;;;;;;;;5109505;28;20261;-67
2023/01/27 01:21:28;;;;;;;;;;;;;;;;;;5109647;28;20018;-65
2023/01/27 01:23:54;;;;;;;;;;;;;;;;;;5109446;28;19927;-68
2023/01/27 01:26:20;;;;;;;;;;;;;;;;;;5109176;28;19977;-68
2023/01/27 01:28:46;;;;;;;;;;;;;;;;;;5107359;28;19918;-68
2023/01/27 01:31:12;;;;;;;;;;;;;;;;;;5090539;28;20269;-67
2023/01/27 01:33:38;;;;;;;;;;;;;;;;;;5109588;28;19908;-66
2023/01/27 01:36:04;;;;;;;;;;;;;;;;;;5109111;28;20376;-67
2023/01/27 01:38:29;;;;;;;;;;;;;;;;;;5109370;28;19908;-66
2023/01/27 01:40:55;;;;;;;;;;;;;;;;;;5109965;28;19918;-67
2023/01/27 01:43:21;;;;;;;;;;;;;;;;;;5113736;28;20372;-66
2023/01/27 01:45:47;;;;;;;;;;;;;;;;;;5113396;28;19911;-69
2023/01/27 01:48:13;;;;;;;;;;;;;;;;;;5113313;28;19915;-69
2023/01/27 01:50:39;;;;;;;;;;;;;;;;;;5109494;28;19907;-69
2023/01/27 01:53:05;;;;;;;;;;;;;;;;;;5113083;28;19960;-67
2023/01/27 01:55:31;;;;;;;;;;;;;;;;;;5114029;28;19915;-65
2023/01/27 01:57:57;;;;;;;;;;;;;;;;;;5113358;28;20680;-67
2023/01/27 02:00:22;;;;;;;;;;;;;;;;;;5113184;28;19912;-68
2023/01/27 02:02:48;;;;;;;;;;;;;;;;;;5106674;28;19916;-67
2023/01/27 02:05:14;;;;;;;;;;;;;;;;;;5113301;28;19922;-65
2023/01/27 02:07:40;;;;;;;;;;;;;;;;;;5113236;28;20359;-69
2023/01/27 02:10:06;;;;;;;;;;;;;;;;;;5113510;28;19919;-68
2023/01/27 02:12:32;;;;;;;;;;;;;;;;;;5113089;28;19931;-68
2023/01/27 02:14:58;;;;;;;;;;;;;;;;;;5112717;28;19916;-69
2023/01/27 02:17:24;;;;;;;;;;;;;;;;;;5112508;28;20497;-65
2023/01/27 02:19:50;;;;;;;;;;;;;;;;;;5113415;28;20456;-69
2023/01/27 02:22:16;;;;;;;;;;;;;;;;;;5110264;28;19911;-68
2023/01/27 02:24:42;;;;;;;;;;;;;;;;;;5112653;28;19924;-68
2023/01/27 02:27:07;;;;;;;;;;;;;;;;;;5112658;28;20786;-68
2023/01/27 02:29:33;;;;;;;;;;;;;;;;;;5112898;28;19977;-69
2023/01/27 02:31:59;;;;;;;;;;;;;;;;;;5112782;28;19951;-67
2023/01/27 02:34:25;;;;;;;;;;;;;;;;;;5112582;28;20440;-66
2023/01/27 02:36:51;;;;;;;;;;;;;;;;;;5112469;28;19908;-68
2023/01/27 02:39:17;;;;;;;;;;;;;;;;;;5112837;28;19960;-68
2023/01/27 02:41:43;;;;;;;;;;;;;;;;;;5112896;28;19951;-67
2023/01/27 02:44:09;;;;;;;;;;;;;;;;;;5112107;28;19920;-66
2023/01/27 02:46:35;;;;;;;;;;;;;;;;;;5112333;28;19915;-67
2023/01/27 02:49:00;;;;;;;;;;;;;;;;;;5112074;28;20284;-67
2023/01/27 02:51:26;;;;;;;;;;;;;;;;;;5105894;28;19908;-68
2023/01/27 02:53:52;;;;;;;;;;;;;;;;;;5111674;28;19947;-68
2023/01/27 02:56:18;;;;;;;;;;;;;;;;;;5111943;28;19934;-68
2023/01/27 02:58:44;;;;;;;;;;;;;;;;;;5112447;28;19922;-68
2023/01/27 03:01:10;;;;;;;;;;;;;;;;;;5112030;28;19950;-68
2023/01/27 03:03:42;;;;;;;;;;;;;;;;;;5112504;28;19965;-68
2023/01/27 03:06:08;;;;;;;;;;;;;;;;;;5106932;28;20434;-68
2023/01/27 03:08:34;;;;;;;;;;;;;;;;;;5112684;28;19955;-65
2023/01/27 03:11:00;;;;;;;;;;;;;;;;;;5112613;28;19912;-61
2023/01/27 03:13:26;;;;;;;;;;;;;;;;;;5112286;28;19998;-68
2023/01/27 03:18:37;;;;;;;;;;;;;;;;;;5112060;28;19919;-66
2023/01/27 03:21:03;;;;;;;;;;;;;;;;;;5112036;28;19911;-67
2023/01/27 03:23:33;;;;;;;;;;;;;;;;;;5105271;28;19962;-66
2023/01/27 03:25:59;;;;;;;;;;;;;;;;;;5111250;28;19911;-67
2023/01/27 03:28:25;;;;;;;;;;;;;;;;;;5105124;28;19961;-67
2023/01/27 03:30:51;;;;;;;;;;;;;;;;;;5111453;28;20649;-67
2023/01/27 03:33:17;;;;;;;;;;;;;;;;;;5111417;28;19912;-68
2023/01/27 03:35:48;;;;;;;;;;;;;;;;;;5111325;28;19955;-68
2023/01/27 03:46:28;;;;;;;;;;;;;;;;;;5111319;28;20317;-68
2023/01/27 03:48:54;;;;;;;;;;;;;;;;;;5110946;28;19924;-66
2023/01/27 03:51:20;;;;;;;;;;;;;;;;;;5111233;28;19908;-66
2023/01/27 03:53:46;;;;;;;;;;;;;;;;;;5111353;28;19912;-67
2023/01/27 03:56:12;;;;;;;;;;;;;;;;;;5111389;28;19912;-69
2023/01/27 03:58:38;;;;;;;;;;;;;;;;;;5111127;28;19935;-69
2023/01/27 04:01:04;;;;;;;;;;;;;;;;;;5111441;28;20333;-70
2023/01/27 04:08:59;;;;;;;;;;;;;;;;;;5110268;28;19922;-68
2023/01/27 04:14:09;;;;;;;;;;;;;;;;;;5111014;28;19919;-67
2023/01/27 04:16:38;;;;;;;;;;;;;;;;;;5110384;28;19912;-69
2023/01/27 04:19:04;;;;;;;;;;;;;;;;;;5111176;28;19912;-68
2023/01/27 04:21:30;;;;;;;;;;;;;;;;;;5110902;28;19918;-68
2023/01/27 04:23:56;;;;;;;;;;;;;;;;;;5110320;28;19915;-68
2023/01/27 04:26:21;;;;;;;;;;;;;;;;;;5110878;28;19919;-68
2023/01/27 04:28:47;;;;;;;;;;;;;;;;;;5110504;28;20296;-68
2023/01/27 04:31:14;;;;;;;;;;;;;;;;;;5110313;28;19911;-68
2023/01/27 04:33:40;;;;;;;;;;;;;;;;;;5111109;28;19911;-69
2023/01/27 04:36:06;;;;;;;;;;;;;;;;;;5110432;28;19961;-68
2023/01/27 04:38:32;;;;;;;;;;;;;;;;;;5109933;28;19908;-69
2023/01/27 04:40:57;;;;;;;;;;;;;;;;;;5110679;28;19908;-67
2023/01/27 04:43:23;;;;;;;;;;;;;;;;;;5109739;28;19985;-69
2023/01/27 04:45:49;;;;;;;;;;;;;;;;;;5110175;28;19908;-68
2023/01/27 04:48:15;;;;;;;;;;;;;;;;;;5110877;28;19918;-69
2023/01/27 04:50:41;;;;;;;;;;;;;;;;;;5110435;27;19911;-69
2023/01/27 04:53:07;;;;;;;;;;;;;;;;;;5109735;28;19911;-69
2023/01/27 04:55:33;;;;;;;;;;;;;;;;;;5110376;28;19912;-68
2023/01/27 04:57:59;;;;;;;;;;;;;;;;;;5109900;28;20363;-68
2023/01/27 05:00:25;;;;;;;;;;;;;;;;;;5103643;28;19966;-68
2023/01/27 05:02:51;;;;;;;;;;;;;;;;;;5109964;28;20329;-68
2023/01/27 05:05:17;;;;;;;;;;;;;;;;;;5109763;28;20006;-68
2023/01/27 05:07:42;;;;;;;;;;;;;;;;;;5109705;28;20382;-68
2023/01/27 05:10:08;;;;;;;;;;;;;;;;;;5109983;28;19916;-68
2023/01/27 05:12:34;;;;;;;;;;;;;;;;;;5110187;28;19908;-69
2023/01/27 05:15:00;;;;;;;;;;;;;;;;;;5110119;28;20287;-69
2023/01/27 05:17:28;;;;;;;;;;;;;;;;;;5109457;28;20329;-69
2023/01/27 05:19:54;;;;;;;;;;;;;;;;;;5109902;28;19915;-69
2023/01/27 05:22:20;;;;;;;;;;;;;;;;;;5109846;28;20265;-69
2023/01/27 05:24:46;;;;;;;;;;;;;;;;;;5110287;28;19951;-68
2023/01/27 05:27:12;;;;;;;;;;;;;;;;;;5109654;28;19930;-68
2023/01/27 05:29:37;;;;;;;;;;;;;;;;;;5104721;28;19966;-68
2023/01/27 05:32:03;;;;;;;;;;;;;;;;;;5091587;28;19912;-69
2023/01/27 05:34:29;;;;;;;;;;;;;;;;;;5110518;28;20014;-70
2023/01/27 05:36:55;;;;;;;;;;;;;;;;;;5109521;28;19976;-69
2023/01/27 05:39:21;;;;;;;;;;;;;;;;;;5109750;28;19908;-69
2023/01/27 05:41:47;;;;;;;;;;;;;;;;;;5109926;28;19939;-69
2023/01/27 05:44:13;;;;;;;;;;;;;;;;;;5109808;28;19944;-69
2023/01/27 05:46:39;;;;;;;;;;;;;;;;;;5110570;28;19919;-68
2023/01/27 05:49:05;;;;;;;;;;;;;;;;;;5091304;28;20526;-67
2023/01/27 05:51:30;;;;;;;;;;;;;;;;;;5109563;28;19914;-69
2023/01/27 05:53:56;;;;;;;;;;;;;;;;;;5109974;28;19908;-70
2023/01/27 05:56:22;;;;;;;;;;;;;;;;;;5109649;28;19912;-69
2023/01/27 05:58:48;;;;;;;;;;;;;;;;;;5110394;28;19918;-70
2023/01/27 06:01:14;;;;;;;;;;;;;;;;;;5109979;28;19987;-69
2023/01/27 06:03:40;;;;;;;;;;;;;;;;;;5102449;28;20014;-70
2023/01/27 06:06:06;;;;;;;;;;;;;;;;;;5109353;28;19908;-70
2023/01/27 06:08:32;;;;;;;;;;;;;;;;;;5109687;28;19915;-68
2023/01/27 06:10:58;;;;;;;;;;;;;;;;;;5109596;28;19938;-70
2023/01/27 06:13:24;;;;;;;;;;;;;;;;;;5109135;28;19965;-69
2023/01/27 06:15:50;;;;;;;;;;;;;;;;;;5109464;28;19965;-69
2023/01/27 06:18:16;;;;;;;;;;;;;;;;;;5109778;28;19943;-69
2023/01/27 06:20:42;;;;;;;;;;;;;;;;;;5108855;28;19912;-70
2023/01/27 06:23:08;;;;;;;;;;;;;;;;;;5109457;28;19920;-69
2023/01/27 06:25:33;;;;;;;;;;;;;;;;;;5109175;28;19951;-69
2023/01/27 06:27:59;;;;;;;;;;;;;;;;;;5109393;28;20295;-68
2023/01/27 06:30:25;;;;;;;;;;;;;;;;;;5113225;28;19916;-68
2023/01/27 06:32:51;;;;;;;;;;;;;;;;;;5112820;28;19923;-68
2023/01/27 06:35:17;;;;;;;;;;;;;;;;;;5112650;28;19912;-69
2023/01/27 06:37:43;;;;;;;;;;;;;;;;;;5112468;28;20501;-69
2023/01/27 06:40:09;;;;;;;;;;;;;;;;;;5112710;28;19908;-70
2023/01/27 06:42:35;;;;;;;;;;;;;;;;;;5112889;28;19936;-68
2023/01/27 06:45:01;;;;;;;;;;;;;;;;;;5112740;28;20645;-70
2023/01/27 06:47:27;;;;;;;;;;;;;;;;;;5112539;28;19912;-70
2023/01/27 06:49:52;;;;;;;;;;;;;;;;;;5112288;28;19918;-69
2023/01/27 06:52:18;;;;;;;;;;;;;;;;;;5112708;28;19908;-71
2023/01/27 06:54:44;;;;;;;;;;;;;;;;;;5112512;28;19911;-71
2023/01/27 06:57:10;;;;;;;;;;;;;;;;;;5112395;28;19959;-68
2023/01/27 06:59:36;;;;;;;;;;;;;;;;;;5112713;28;19907;-68
2023/01/27 07:04:38;;;;;;;;;;;;;;;;;;5190212;22;19950;-67
2023/01/27 07:07:04;;;;;;;;;;;;;;;;;;5113490;27;20358;-65
2023/01/27 07:09:30;;;;;;;;;;;;;;;;;;5132338;27;20616;-61
2023/01/27 07:11:56;;;;;;;;;;;;;;;;;;5132481;27;19914;-62
2023/01/27 07:14:21;;;;;;;;;;;;;;;;;;5131640;27;19907;-61
2023/01/27 07:16:47;;;;;;;;;;;;;;;;;;5131913;27;19911;-62
2023/01/27 07:19:13;;;;;;;;;;;;;;;;;;5131261;27;19912;-62
2023/01/27 07:21:39;;;;;;;;;;;;;;;;;;5131844;27;19915;-61
2023/01/27 07:24:05;;;;;;;;;;;;;;;;;;5132032;27;19972;-61
2023/01/27 07:26:31;;;;;;;;;;;;;;;;;;5131535;27;20355;-62
2023/01/27 07:28:57;;;;;;;;;;;;;;;;;;5131760;27;20014;-62
2023/01/27 07:31:23;;;;;;;;;;;;;;;;;;5132163;27;20383;-61
2023/01/27 07:33:49;;;;;;;;;;;;;;;;;;5113387;27;19912;-62
2023/01/27 07:36:15;;;;;;;;;;;;;;;;;;5128106;27;20382;-61
2023/01/27 07:38:40;;;;;;;;;;;;;;;;;;5129655;27;19911;-62
2023/01/27 07:41:06;;;;;;;;;;;;;;;;;;5131576;27;20045;-63
2023/01/27 07:43:32;;;;;;;;;;;;;;;;;;5130893;27;20434;-62
2023/01/27 07:45:58;;;;;;;;;;;;;;;;;;5132036;27;20439;-62
2023/01/27 07:48:24;;;;;;;;;;;;;;;;;;5131133;27;20383;-62
2023/01/27 07:50:50;;;;;;;;;;;;;;;;;;5131514;27;19922;-61
2023/01/27 07:53:16;;;;;;;;;;;;;;;;;;5131423;27;20032;-61
2023/01/27 07:55:42;;;;;;;;;;;;;;;;;;5131571;27;19914;-62
2023/01/27 07:58:08;;;;;;;;;;;;;;;;;;5131629;27;19908;-62
2023/01/27 08:00:34;;;;;;;;;;;;;;;;;;5131640;27;19923;-61
2023/01/27 08:03:00;;;;;;;;;;;;;;;;;;5130814;27;20006;-64
2023/01/27 08:05:26;;;;;;;;;;;;;;;;;;5131095;27;19912;-62
2023/01/27 08:07:51;;;;;;;;;;;;;;;;;;5131299;27;19912;-62
2023/01/27 08:10:18;;;;;;;;;;;;;;;;;;5131413;27;20385;-64
2023/01/27 08:12:44;;;;;;;;;;;;;;;;;;5131302;27;19907;-62
2023/01/27 08:15:09;;;;;;;;;;;;;;;;;;5131453;27;20345;-61
2023/01/27 08:17:35;;;;;;;;;;;;;;;;;;5130752;27;19962;-63
2023/01/27 08:20:01;;;;;;;;;;;;;;;;;;5124213;27;20276;-63
2023/01/27 08:22:27;;;;;;;;;;;;;;;;;;5131080;27;19911;-64
2023/01/27 08:24:53;;;;;;;;;;;;;;;;;;5130843;27;20529;-64
2023/01/27 08:27:19;;;;;;;;;;;;;;;;;;5131013;27;19998;-63
2023/01/27 08:29:45;;;;;;;;;;;;;;;;;;5130804;27;19914;-62
2023/01/27 08:32:11;;;;;;;;;;;;;;;;;;5130466;27;19999;-62
2023/01/27 08:34:37;;;;;;;;;;;;;;;;;;5112703;27;19911;-62
2023/01/27 08:37:03;;;;;;;;;;;;;;;;;;5130531;27;19957;-62
2023/01/27 08:39:28;;;;;;;;;;;;;;;;;;5130604;27;19930;-62
2023/01/27 08:41:54;;;;;;;;;;;;;;;;;;5130074;27;19954;-63
2023/01/27 08:44:20;;;;;;;;;;;;;;;;;;5130342;27;19923;-62
2023/01/27 08:46:46;;;;;;;;;;;;;;;;;;5130099;27;19907;-61
2023/01/27 08:49:13;;;;;;;;;;;;;;;;;;5130206;27;19911;-64
2023/01/27 08:51:38;;;;;;;;;;;;;;;;;;5129603;27;20441;-64
2023/01/27 08:54:04;;;;;;;;;;;;;;;;;;5130279;27;19911;-64
2023/01/27 08:56:30;;;;;;;;;;;;;;;;;;5130066;27;19915;-63
2023/01/27 08:58:56;;;;;;;;;;;;;;;;;;5130740;27;19991;-63
2023/01/27 09:01:22;;;;;;;;;;;;;;;;;;5130141;27;19912;-62
2023/01/27 09:03:48;;;;;;;;;;;;;;;;;;5129989;27;20036;-63
2023/01/27 09:06:14;;;;;;;;;;;;;;;;;;5130129;27;20003;-64
2023/01/27 09:08:40;;;;;;;;;;;;;;;;;;5130421;27;20290;-62
2023/01/27 09:11:06;;;;;;;;;;;;;;;;;;5130102;27;19908;-62
2023/01/27 09:13:32;;;;;;;;;;;;;;;;;;5130100;27;19914;-61
2023/01/27 09:15:59;;;;;;;;;;;;;;;;;;5130254;27;20621;-62
2023/01/27 09:18:25;;;;;;;;;;;;;;;;;;5130069;27;20347;-62
2023/01/27 09:20:51;;;;;;;;;;;;;;;;;;5129928;27;20409;-62
2023/01/27 09:23:17;;;;;;;;;;;;;;;;;;5130077;27;20320;-60
2023/01/27 09:25:43;;;;;;;;;;;;;;;;;;5129927;27;20132;-62
2023/01/27 09:28:15;;;;;;;;;;;;;;;;;;5130116;27;20394;-62
2023/01/27 09:30:41;;;;;;;;;;;;;;;;;;5130010;27;19954;-63
2023/01/27 09:33:07;;;;;;;;;;;;;;;;;;5129774;28;20371;-61
2023/01/27 09:35:33;;;;;;;;;;;;;;;;;;5129941;28;20445;-63
2023/01/27 09:37:59;;;;;;;;;;;;;;;;;;5130017;28;20407;-63
2023/01/27 09:40:25;;;;;;;;;;;;;;;;;;5129654;28;19911;-63
2023/01/27 09:42:51;;;;;;;;;;;;;;;;;;5129195;28;19973;-63
2023/01/27 09:45:17;;;;;;;;;;;;;;;;;;5129625;28;19998;-62
2023/01/27 09:47:43;;;;;;;;;;;;;;;;;;5129918;28;19908;-62
2023/01/27 09:50:09;;;;;;;;;;;;;;;;;;5129549;28;20450;-62
2023/01/27 09:52:35;;;;;;;;;;;;;;;;;;5129477;28;19943;-61
2023/01/27 09:55:01;;;;;;;;;;;;;;;;;;5129924;28;20003;-62
2023/01/27 09:57:28;;;;;;;;;;;;;;;;;;5129411;28;19911;-61
2023/01/27 09:59:54;;;;;;;;;;;;;;;;;;5129750;28;20286;-63
2023/01/27 10:02:19;;;;;;;;;;;;;;;;;;5130653;27;19927;-63
2023/01/27 10:04:45;;;;;;;;;;;;;;;;;;5114876;27;19930;-62
2023/01/27 10:07:11;;;;;;;;;;;;;;;;;;5133549;27;19915;-62
2023/01/27 10:09:38;;;;;;;;;;;;;;;;;;5133346;27;19911;-62
2023/01/27 10:12:04;;;;;;;;;;;;;;;;;;5133204;27;19907;-62
2023/01/27 10:14:30;;;;;;;;;;;;;;;;;;5133386;27;19915;-62
2023/01/27 10:16:56;;;;;;;;;;;;;;;;;;5114637;27;19912;-62
2023/01/27 10:19:21;;;;;;;;;;;;;;;;;;5133462;27;19911;-62
2023/01/27 10:21:47;;;;;;;;;;;;;;;;;;5132980;27;19915;-62
2023/01/27 10:24:13;;;;;;;;;;;;;;;;;;5133682;27;19927;-63
2023/01/27 10:26:39;;;;;;;;;;;;;;;;;;5132998;27;19930;-62
2023/01/27 10:29:05;;;;;;;;;;;;;;;;;;5132491;27;20006;-62
2023/01/27 10:31:31;;;;;;;;;;;;;;;;;;5132964;27;19918;-62
2023/01/27 10:33:57;;;;;;;;;;;;;;;;;;5132822;27;19912;-63
2023/01/27 10:36:23;;;;;;;;;;;;;;;;;;5125964;27;19957;-63
2023/01/27 10:38:49;;;;;;;;;;;;;;;;;;5132679;27;19911;-62
2023/01/27 10:41:15;;;;;;;;;;;;;;;;;;5132613;27;19907;-63
2023/01/27 10:43:41;;;;;;;;;;;;;;;;;;5132442;27;20302;-63
2023/01/27 10:46:06;;;;;;;;;;;;;;;;;;5132847;27;19960;-63
2023/01/27 10:48:33;;;;;;;;;;;;;;;;;;5132844;27;19919;-64
2023/01/27 10:50:59;;;;;;;;;;;;;;;;;;5132585;27;19912;-61
2023/01/27 10:53:25;;;;;;;;;;;;;;;;;;5132255;27;19911;-62
2023/01/27 10:55:51;;;;;;;;;;;;;;;;;;5130997;27;19918;-61
2023/01/27 10:58:19;;;;;;;;;;;;;;;;;;5125717;27;19911;-62
2023/01/27 11:00:44;;;;;;;;;;;;;;;;;;5125888;27;19938;-62
2023/01/27 11:03:10;;;;;;;;;;;;;;;;;;5130770;27;20360;-62
2023/01/27 11:05:36;;;;;;;;;;;;;;;;;;5132598;27;20363;-63
2023/01/27 11:08:02;;;;;;;;;;;;;;;;;;5132304;27;19956;-62
2023/01/27 11:10:28;;;;;;;;;;;;;;;;;;5132043;27;19961;-62
2023/01/27 11:12:54;;;;;;;;;;;;;;;;;;5131861;27;19922;-61
2023/01/27 11:15:20;;;;;;;;;;;;;;;;;;5129764;27;20062;-62
2023/01/27 11:17:46;;;;;;;;;;;;;;;;;;5127946;27;20669;-64
2023/01/27 11:20:12;;;;;;;;;;;;;;;;;;5128252;27;19915;-61
2023/01/27 11:22:38;;;;;;;;;;;;;;;;;;5132685;27;20272;-63
2023/01/27 11:25:03;;;;;;;;;;;;;;;;;;5131655;27;19915;-62
2023/01/27 11:27:29;;;;;;;;;;;;;;;;;;5131916;27;19911;-63
2023/01/27 11:29:55;;;;;;;;;;;;;;;;;;5132158;27;20367;-61
2023/01/27 11:32:21;;;;;;;;;;;;;;;;;;5131572;27;19908;-63
2023/01/27 11:34:47;;;;;;;;;;;;;;;;;;5132504;27;19911;-62
2023/01/27 11:37:13;;;;;;;;;;;;;;;;;;5131549;27;19994;-62
2023/01/27 11:39:39;;;;;;;;;;;;;;;;;;5131632;27;19914;-62
2023/01/27 11:42:05;;;;;;;;;;;;;;;;;;5131982;27;20369;-63
2023/01/27 11:44:31;;;;;;;;;;;;;;;;;;5131400;27;19924;-62
2023/01/27 11:46:56;;;;;;;;;;;;;;;;;;5131725;27;20378;-61
2023/01/27 11:49:22;;;;;;;;;;;;;;;;;;5132052;27;19912;-63
2023/01/27 11:51:48;;;;;;;;;;;;;;;;;;5131620;27;20375;-64
2023/01/27 11:54:14;;;;;;;;;;;;;;;;;;5131048;27;19961;-64
2023/01/27 11:56:40;;;;;;;;;;;;;;;;;;5131560;27;19914;-64
2023/01/27 11:59:06;;;;;;;;;;;;;;;;;;5131648;27;19918;-63
2023/01/27 12:01:32;;;;;;;;;;;;;;;;;;5112614;27;20272;-64
2023/01/27 12:03:58;;;;;;;;;;;;;;;;;;5130888;27;20276;-64
2023/01/27 12:06:24;;;;;;;;;;;;;;;;;;5131867;27;19972;-62
2023/01/27 12:08:49;;;;;;;;;;;;;;;;;;5130921;27;19911;-62
2023/01/27 12:11:16;;;;;;;;;;;;;;;;;;5130896;27;20327;-63
2023/01/27 12:13:41;;;;;;;;;;;;;;;;;;5131253;27;19912;-63
2023/01/27 12:16:07;;;;;;;;;;;;;;;;;;5131396;27;20325;-63
2023/01/27 12:18:33;;;;;;;;;;;;;;;;;;5131129;27;19914;-62
2023/01/27 12:20:59;;;;;;;;;;;;;;;;;;5130943;27;19951;-62
2023/01/27 12:23:25;;;;;;;;;;;;;;;;;;5130150;27;19915;-62
2023/01/27 12:25:51;;;;;;;;;;;;;;;;;;5129987;27;20395;-62
2023/01/27 12:28:17;;;;;;;;;;;;;;;;;;5130848;27;19907;-62
2023/01/27 12:30:43;;;;;;;;;;;;;;;;;;5111732;27;19911;-63
2023/01/27 12:33:09;;;;;;;;;;;;;;;;;;5130447;27;19907;-63
2023/01/27 12:35:35;;;;;;;;;;;;;;;;;;5130692;27;19911;-61
2023/01/27 12:38:01;;;;;;;;;;;;;;;;;;5130003;27;19911;-60
2023/01/27 12:40:30;;;;;;;;;;;;;;;;;;5130266;27;19915;-61
2023/01/27 12:42:56;;;;;;;;;;;;;;;;;;5123721;27;19975;-62
2023/01/27 12:45:22;;;;;;;;;;;;;;;;;;5130014;27;20013;-61
2023/01/27 12:47:48;;;;;;;;;;;;;;;;;;5130039;27;20331;-64
2023/01/27 12:50:14;;;;;;;;;;;;;;;;;;5130247;27;20025;-61
2023/01/27 12:52:40;;;;;;;;;;;;;;;;;;5129856;27;19914;-61
2023/01/27 12:55:05;;;;;;;;;;;;;;;;;;5129782;27;20010;-62
2023/01/27 12:57:31;;;;;;;;;;;;;;;;;;5130099;27;19994;-64
2023/01/27 12:59:57;;;;;;;;;;;;;;;;;;5130355;27;19908;-62
2023/01/27 13:02:23;;;;;;;;;;;;;;;;;;5129894;27;19907;-63
2023/01/27 13:04:49;;;;;;;;;;;;;;;;;;5130007;27;19924;-63
2023/01/27 13:07:15;;;;;;;;;;;;;;;;;;5129867;27;19907;-64
2023/01/27 13:09:41;;;;;;;;;;;;;;;;;;5129595;27;19947;-63
2023/01/27 13:12:07;;;;;;;;;;;;;;;;;;5129695;27;19911;-60
2023/01/27 13:14:33;;;;;;;;;;;;;;;;;;5129635;27;19964;-62
2023/01/27 13:16:59;;;;;;;;;;;;;;;;;;5130164;27;20378;-62
2023/01/27 13:19:25;;;;;;;;;;;;;;;;;;5129769;27;19911;-61
2023/01/27 13:21:51;;;;;;;;;;;;;;;;;;5129320;27;19919;-61
2023/01/27 13:24:18;;;;;;;;;;;;;;;;;;5129211;27;19923;-62
2023/01/27 13:26:44;;;;;;;;;;;;;;;;;;5129658;27;20307;-61
2023/01/27 13:29:10;;;;;;;;;;;;;;;;;;5129647;27;19908;-62
2023/01/27 13:31:36;;;;;;;;;;;;;;;;;;5129707;27;19964;-61
2023/01/27 13:34:02;;;;;;;;;;;;;;;;;;5129578;28;19911;-62
2023/01/27 13:36:28;;;;;;;;;;;;;;;;;;5129682;27;19958;-62
2023/01/27 13:38:54;;;;;;;;;;;;;;;;;;5136056;27;19911;-63
2023/01/27 13:41:19;;;;;;;;;;;;;;;;;;5136197;27;19955;-62
2023/01/27 13:43:45;;;;;;;;;;;;;;;;;;5136595;27;19968;-59
2023/01/27 13:46:11;;;;;;;;;;;;;;;;;;5135793;27;19919;-63
2023/01/27 13:48:37;;;;;;;;;;;;;;;;;;5132975;27;19915;-60
2023/01/27 13:51:03;;;;;;;;;;;;;;;;;;5124058;27;19968;-59
2023/01/27 13:53:29;;;;;;;;;;;;;;;;;;5128472;27;19916;-58
2023/01/27 13:55:55;;;;;;;;;;;;;;;;;;5128993;27;19923;-60
2023/01/27 13:58:21;;;;;;;;;;;;;;;;;;5127498;27;19923;-61
2023/01/27 14:00:47;;;;;;;;;;;;;;;;;;5129193;27;19915;-61
2023/01/27 14:03:13;;;;;;;;;;;;;;;;;;5126881;27;19920;-62
2023/01/27 14:05:39;;;;;;;;;;;;;;;;;;5123410;27;19912;-62
2023/01/27 14:08:06;;;;;;;;;;;;;;;;;;5127442;27;19918;-62
2023/01/27 14:10:32;;;;;;;;;;;;;;;;;;5127772;27;19938;-61
2023/01/27 14:12:58;;;;;;;;;;;;;;;;;;5123651;27;20372;-61
2023/01/27 14:15:24;;;;;;;;;;;;;;;;;;5121997;27;19922;-60
2023/01/27 14:17:50;;;;;;;;;;;;;;;;;;5127998;27;19960;-61
2023/01/27 14:20:16;;;;;;;;;;;;;;;;;;5127233;27;19963;-61
2023/01/27 14:22:42;;;;;;;;;;;;;;;;;;5131415;27;19943;-61
2023/01/27 14:25:08;;;;;;;;;;;;;;;;;;5130304;27;20295;-61
2023/01/27 14:27:34;;;;;;;;;;;;;;;;;;5129752;27;19919;-60
2023/01/27 14:30:00;;;;;;;;;;;;;;;;;;5128149;27;20367;-63
2023/01/27 14:32:26;;;;;;;;;;;;;;;;;;5127341;27;19911;-62
2023/01/27 14:34:52;;;;;;;;;;;;;;;;;;5122442;27;20008;-62
2023/01/27 14:37:18;;;;;;;;;;;;;;;;;;5103234;27;19973;-62
2023/01/27 14:39:44;;;;;;;;;;;;;;;;;;5124033;27;19923;-62
2023/01/27 14:42:10;;;;;;;;;;;;;;;;;;5126202;27;20367;-62
2023/01/27 14:44:36;;;;;;;;;;;;;;;;;;5125352;27;20421;-62
2023/01/27 14:47:02;;;;;;;;;;;;;;;;;;5120802;27;20768;-64
2023/01/27 14:49:28;;;;;;;;;;;;;;;;;;5125562;27;19975;-63
2023/01/27 14:51:54;;;;;;;;;;;;;;;;;;5117801;27;19919;-64
2023/01/27 14:54:20;;;;;;;;;;;;;;;;;;5124025;27;20362;-62
2023/01/27 14:56:46;;;;;;;;;;;;;;;;;;5123924;27;19957;-61
2023/01/27 14:59:11;;;;;;;;;;;;;;;;;;5120572;27;19962;-62
2023/01/27 15:01:38;;;;;;;;;;;;;;;;;;5126456;27;19915;-60
2023/01/27 15:04:04;;;;;;;;;;;;;;;;;;5125518;27;19972;-61
2023/01/27 15:06:30;;;;;;;;;;;;;;;;;;5123977;27;19919;-64
2023/01/27 15:08:56;;;;;;;;;;;;;;;;;;5122367;27;19912;-64
2023/01/27 15:11:22;;;;;;;;;;;;;;;;;;5118632;27;19916;-64
2023/01/27 15:13:48;;;;;;;;;;;;;;;;;;5101014;27;19923;-63
2023/01/27 15:16:14;;;;;;;;;;;;;;;;;;5119817;27;20014;-63
2023/01/27 15:18:40;;;;;;;;;;;;;;;;;;5122108;27;19961;-61
2023/01/27 15:21:06;;;;;;;;;;;;;;;;;;5119273;27;20383;-60
2023/01/27 15:23:32;;;;;;;;;;;;;;;;;;5116542;27;19977;-60
2023/01/27 15:26:00;;;;;;;;;;;;;;;;;;5120929;27;20111;-62
2023/01/27 15:28:26;;;;;;;;;;;;;;;;;;5114545;27;19915;-61
2023/01/27 15:30:52;;;;;;;;;;;;;;;;;;5125177;27;19976;-62
2023/01/27 15:33:18;;;;;;;;;;;;;;;;;;5119571;27;19929;-61
2023/01/27 15:35:44;;;;;;;;;;;;;;;;;;5121387;27;19915;-61
2023/01/27 15:38:10;;;;;;;;;;;;;;;;;;5117066;27;19916;-61
2023/01/27 15:40:36;;;;;;;;;;;;;;;;;;5123187;27;19945;-59
2023/01/27 15:43:05;;;;;;;;;;;;;;;;;;5099885;27;19977;-60
2023/01/27 15:45:31;;;;;;;;;;;;;;;;;;5120076;27;20011;-61
2023/01/27 15:47:57;;;;;;;;;;;;;;;;;;5117947;27;20310;-61
2023/01/27 15:50:23;;;;;;;;;;;;;;;;;;5121328;27;19915;-62
2023/01/27 15:52:49;;;;;;;;;;;;;;;;;;5120072;27;19924;-62
2023/01/27 15:55:14;;;;;;;;;;;;;;;;;;5121072;27;19919;-62
2023/01/27 15:57:40;;;;;;;;;;;;;;;;;;5119973;27;19961;-61
2023/01/27 16:00:06;;;;;;;;;;;;;;;;;;5116574;27;20184;-62
2023/01/27 16:02:32;;;;;;;;;;;;;;;;;;5121020;27;20457;-62
2023/01/27 16:04:58;;;;;;;;;;;;;;;;;;5116345;27;19924;-61
2023/01/27 16:07:24;;;;;;;;;;;;;;;;;;5122054;27;19916;-60
2023/01/27 16:09:50;;;;;;;;;;;;;;;;;;5119418;27;20378;-62
2023/01/27 16:12:16;;;;;;;;;;;;;;;;;;5121879;27;20851;-60
2023/01/27 16:14:42;;;;;;;;;;;;;;;;;;5113902;27;19930;-60
2023/01/27 16:17:08;;;;;;;;;;;;;;;;;;5123607;27;20071;-61
2023/01/27 16:19:34;;;;;;;;;;;;;;;;;;5115281;27;21504;-60
2023/01/27 16:22:00;;;;;;;;;;;;;;;;;;5123449;27;19918;-62
2023/01/27 16:24:26;;;;;;;;;;;;;;;;;;5122721;27;19924;-61
2023/01/27 16:26:52;;;;;;;;;;;;;;;;;;5121779;27;19922;-63
2023/01/27 16:29:18;;;;;;;;;;;;;;;;;;5115954;27;20017;-61
2023/01/27 16:31:44;;;;;;;;;;;;;;;;;;5118433;27;20422;-62
2023/01/27 16:34:10;;;;;;;;;;;;;;;;;;5118387;27;19911;-64
2023/01/27 16:36:36;;;;;;;;;;;;;;;;;;5126371;27;20601;-64
2023/01/27 16:39:02;;;;;;;;;;;;;;;;;;5129964;27;19941;-61
2023/01/27 16:41:28;;;;;;;;;;;;;;;;;;5127680;27;20657;-62
2023/01/27 16:43:54;;;;;;;;;;;;;;;;;;5126326;27;19923;-62
2023/01/27 16:46:20;;;;;;;;;;;;;;;;;;5128138;27;19915;-63
2023/01/27 16:48:46;;;;;;;;;;;;;;;;;;5130162;27;20294;-60
2023/01/27 16:51:12;;;;;;;;;;;;;;;;;;5126947;27;19916;-63
2023/01/27 16:53:37;;;;;;;;;;;;;;;;;;5130218;27;19952;-62
2023/01/27 16:56:03;;;;;;;;;;;;;;;;;;5130137;27;19999;-60
2023/01/27 16:58:29;;;;;;;;;;;;;;;;;;5129844;27;19912;-61
2023/01/27 17:00:55;;;;;;;;;;;;;;;;;;5130327;27;19992;-61
2023/01/27 17:03:21;;;;;;;;;;;;;;;;;;5129753;27;19927;-60
2023/01/27 17:05:47;;;;;;;;;;;;;;;;;;5128740;27;19965;-61
2023/01/27 17:08:13;;;;;;;;;;;;;;;;;;5130033;27;19930;-60